Time;durP1;ratioP1;P1;durP2;ratioP2;P2;SDS_P1;SDS_P2;PMS_P1;PMS_P2;Temp;Humidity;BMP_temperature;BMP_pressure;BME280_temperature;BME280_humidity;BME280_pressure;Samples;Min_cycle;Max_cycle;Signal;HPM_P1;HPM_P2
2022/02/09 00:10:22;;;;;;;8.07;2.20;;;8.20;99.90;;;;;;5091073;28;20398;-56
2022/02/09 00:15:36;;;;;;;8.38;2.42;;;8.20;99.90;;;;;;5083170;28;20599;-56
2022/02/09 00:39:25;;;;;;;7.80;2.80;;;8.30;99.90;;;;;;5108833;28;20468;-56
2022/02/09 01:11:26;;;;;;;8.55;2.42;;;8.30;99.90;;;;;;5101843;28;20525;-56
2022/02/09 01:38:47;;;;;;;5.60;1.90;;;8.50;99.90;;;;;;5091890;28;20415;-57
2022/02/09 01:57:16;;;;;;;6.20;2.40;;;8.50;99.90;;;;;;5090468;28;20739;-57
2022/02/09 01:59:44;;;;;;;5.30;1.90;;;8.50;99.90;;;;;;5091308;28;20411;-57
2022/02/09 02:02:10;;;;;;;5.40;2.03;;;8.50;99.90;;;;;;5090658;28;20932;-58
2022/02/09 02:04:36;;;;;;;5.45;2.08;;;8.50;99.90;;;;;;5090986;28;20405;-57
2022/02/09 02:07:11;;;;;;;5.10;2.00;;;8.50;99.90;;;;;;5091384;28;20435;-57
2022/02/09 02:09:39;;;;;;;5.38;2.10;;;8.50;99.90;;;;;;5124006;27;20460;-57
2022/02/09 02:12:19;;;;;;;5.32;2.20;;;8.40;99.90;;;;;;5090973;28;20418;-57
2022/02/09 02:14:53;;;;;;;5.60;1.83;;;8.50;99.90;;;;;;5091036;28;20382;-57
2022/02/09 02:18:01;;;;;;;6.30;1.90;;;8.60;99.90;;;;;;5090161;28;20475;-57
2022/02/09 02:20:24;;;;;;;5.97;2.20;;;8.70;99.90;;;;;;5084652;28;20411;-57
2022/02/09 02:23:26;;;;;;;5.70;1.90;;;8.80;99.90;;;;;;5089687;28;20410;-57
2022/02/09 02:26:05;;;;;;;6.22;2.30;;;9.20;99.90;;;;;;5075829;28;20849;-57
2022/02/09 02:28:55;;;;;;;6.17;2.10;;;8.80;99.90;;;;;;5076398;28;20957;-57
2022/02/09 02:36:49;;;;;;;6.20;2.30;;;8.70;99.90;;;;;;5089652;28;20401;-57
2022/02/09 03:11:10;;;;;;;6.90;3.00;;;8.70;99.90;;;;;;5089887;28;20507;-57
2022/02/09 03:13:47;;;;;;;9.75;4.03;;;8.70;99.90;;;;;;5089800;28;20460;-57
2022/02/09 03:16:16;;;;;;;7.00;3.60;;;8.50;99.90;;;;;;5089070;28;20422;-58
2022/02/09 03:21:54;;;;;;;8.70;3.25;;;8.60;99.90;;;;;;5072470;28;20401;-57
2022/02/09 03:48:47;;;;;;;11.07;4.60;;;8.60;99.90;;;;;;5092956;28;20394;-57
2022/02/09 03:53:55;;;;;;;10.30;4.90;;;8.50;99.90;;;;;;5093539;28;20392;-57
2022/02/09 03:58:53;;;;;;;11.77;4.95;;;8.50;99.90;;;;;;5093530;28;20718;-57
2022/02/09 04:01:22;;;;;;;11.52;4.60;;;8.50;99.90;;;;;;5092578;28;20427;-57
2022/02/09 04:03:48;;;;;;;9.25;4.68;;;8.50;99.90;;;;;;5093075;28;20458;-57
2022/02/09 04:06:14;;;;;;;10.93;5.50;;;8.60;99.90;;;;;;5091371;28;20444;-57
2022/02/09 04:08:48;;;;;;;9.30;5.00;;;8.60;99.90;;;;;;5093274;28;20843;-57
2022/02/09 04:12:09;;;;;;;10.43;5.30;;;8.60;99.90;;;;;;5092735;28;20466;-57
2022/02/09 04:19:24;;;;;;;11.75;5.82;;;8.40;99.90;;;;;;5072584;28;20411;-57
2022/02/09 04:51:25;;;;;;;9.57;4.68;;;8.50;99.90;;;;;;5088425;28;20897;-57
2022/02/09 04:59:24;;;;;;;11.77;4.72;;;8.50;99.90;;;;;;5101898;28;20863;-57
2022/02/09 05:28:30;;;;;;;10.70;4.47;;;8.30;99.90;;;;;;5095440;28;20429;-57
2022/02/09 05:30:55;;;;;;;9.17;4.60;;;8.30;99.90;;;;;;5102648;28;20421;-56
2022/02/09 05:33:22;;;;;;;9.63;3.80;;;8.20;99.90;;;;;;5089896;28;20451;-56
2022/02/09 05:35:49;;;;;;;8.77;3.88;;;9.00;99.90;;;;;;5091622;28;20386;-57
2022/02/09 05:38:16;;;;;;;8.70;3.93;;;8.20;99.90;;;;;;5077932;28;20405;-57
2022/02/09 05:40:44;;;;;;;8.37;3.80;;;8.30;99.90;;;;;;5091255;28;20847;-57
2022/02/09 05:43:11;;;;;;;7.60;3.40;;;8.20;99.90;;;;;;5091649;28;20402;-56
2022/02/09 05:46:22;;;;;;;9.13;3.75;;;8.10;99.90;;;;;;5083090;28;20513;-56
2022/02/09 05:53:35;;;;;;;9.30;4.17;;;8.20;99.90;;;;;;5077603;28;20773;-57
2022/02/09 05:56:19;;;;;;;7.00;3.53;;;9.40;99.90;;;;;;5073165;28;20387;-57
2022/02/09 05:58:50;;;;;;;10.40;3.33;;;8.30;99.90;;;;;;5072513;28;20415;-57
2022/02/09 06:01:15;;;;;;;8.70;3.27;;;8.20;99.90;;;;;;5077498;28;20469;-57
2022/02/09 06:03:41;;;;;;;7.15;3.40;;;8.20;99.90;;;;;;5074321;28;20502;-57
2022/02/09 06:06:09;;;;;;;8.83;3.37;;;8.40;99.90;;;;;;5081367;28;20420;-57
2022/02/09 06:08:36;;;;;;;8.77;2.90;;;8.40;99.90;;;;;;5085605;28;21132;-57
2022/02/09 06:22:04;;;;;;;6.90;3.20;;;8.40;99.90;;;;;;5058054;28;20452;-56
2022/02/09 06:24:30;;;;;;;8.75;2.92;;;8.30;99.90;;;;;;5049039;28;20394;-56
2022/02/09 06:26:56;;;;;;;7.18;3.20;;;8.40;99.90;;;;;;5050017;28;20414;-56
2022/02/09 06:29:23;;;;;;;7.00;3.10;;;8.30;99.90;;;;;;5061674;28;20388;-56
2022/02/09 06:31:49;;;;;;;9.57;3.53;;;8.40;99.90;;;;;;5066518;28;20847;-56
2022/02/09 06:34:18;;;;;;;7.75;3.47;;;8.30;99.90;;;;;;5066839;28;20385;-56
2022/02/09 06:36:49;;;;;;;7.43;3.15;;;8.40;99.90;;;;;;5066599;28;20438;-56
2022/02/09 06:39:17;;;;;;;9.50;3.38;;;8.20;99.90;;;;;;5066767;28;20396;-56
2022/02/09 06:41:43;;;;;;;8.02;3.00;;;8.10;99.90;;;;;;5057592;28;20424;-55
2022/02/09 06:44:10;;;;;;;9.20;3.30;;;8.10;99.90;;;;;;5057637;28;20368;-54
2022/02/09 06:46:38;;;;;;;7.57;3.40;;;8.10;99.90;;;;;;5048580;28;20386;-56
2022/02/09 06:49:07;;;;;;;7.80;2.83;;;8.10;99.90;;;;;;5046407;28;20398;-56
2022/02/09 06:51:37;;;;;;;9.45;3.00;;;8.20;99.90;;;;;;5045429;28;20752;-56
2022/02/09 06:55:06;;;;;;;9.35;3.30;;;8.20;99.90;;;;;;5046960;28;20492;-58
2022/02/09 06:59:30;;;;;;;10.18;3.45;;;8.30;99.90;;;;;;5046019;28;20490;-59
2022/02/09 07:02:06;;;;;;;10.50;3.90;;;8.40;99.90;;;;;;5046743;28;20453;-56
2022/02/09 07:04:36;;;;;;;8.18;3.20;;;8.30;99.90;;;;;;5051992;28;20446;-56
2022/02/09 07:07:04;;;;;;;7.45;3.33;;;8.20;99.90;;;;;;5064895;28;20401;-57
2022/02/09 07:09:30;;;;;;;7.60;2.80;;;8.10;99.90;;;;;;5066046;28;20376;-57
2022/02/09 07:11:56;;;;;;;9.80;3.30;;;8.10;99.90;;;;;;5066308;28;20377;-57
2022/02/09 07:14:25;;;;;;;8.83;3.23;;;8.20;99.90;;;;;;5056958;28;20420;-59
2022/02/09 07:16:52;;;;;;;8.30;3.05;;;9.50;99.90;;;;;;5051073;28;20428;-58
2022/02/09 07:19:18;;;;;;;10.05;3.67;;;8.40;99.90;;;;;;5065586;28;20384;-59
2022/02/09 07:21:45;;;;;;;7.07;2.90;;;8.50;99.90;;;;;;5066607;28;20384;-58
2022/02/09 07:24:14;;;;;;;8.07;2.83;;;8.70;99.90;;;;;;5086600;28;20390;-58
2022/02/09 07:27:01;;;;;;;6.55;2.80;;;8.70;99.90;;;;;;5085522;28;20380;-58
2022/02/09 07:29:25;;;;;;;10.82;3.47;;;8.70;99.90;;;;;;5078672;28;20726;-58
2022/02/09 07:31:52;;;;;;;8.73;3.10;;;8.60;99.90;;;;;;5073209;28;20374;-58
2022/02/09 07:34:18;;;;;;;8.70;3.30;;;8.50;99.90;;;;;;5072543;28;20525;-58
2022/02/09 07:36:45;;;;;;;8.87;4.30;;;9.70;99.90;;;;;;5072562;28;20916;-58
2022/02/09 07:39:12;;;;;;;9.68;4.10;;;8.70;99.90;;;;;;5072956;28;20442;-58
2022/02/09 07:41:44;;;;;;;8.95;3.35;;;9.00;99.90;;;;;;5072276;28;20864;-58
2022/02/09 07:47:01;;;;;;;7.47;3.50;;;9.90;99.90;;;;;;5057194;28;20382;-56
2022/02/09 07:49:49;;;;;;;10.60;3.20;;;10.90;99.90;;;;;;5071651;28;20384;-57
2022/02/09 07:52:22;;;;;;;8.50;3.60;;;12.30;99.90;;;;;;5071230;28;20384;-56
2022/02/09 07:54:48;;;;;;;8.07;3.50;;;13.30;99.90;;;;;;5064286;28;20436;-57
2022/02/09 07:57:13;;;;;;;9.20;3.75;;;13.70;99.90;;;;;;5053892;28;20412;-57
2022/02/09 07:59:39;;;;;;;9.87;3.80;;;14.60;99.90;;;;;;5056883;28;20393;-57
2022/02/09 08:02:04;;;;;;;10.57;3.50;;;15.20;99.90;;;;;;5052139;28;20495;-57
2022/02/09 08:04:30;;;;;;;13.10;7.35;;;15.70;99.90;;;;;;5050679;28;20886;-57
2022/02/09 08:06:57;;;;;;;8.57;3.40;;;15.90;99.90;;;;;;5051145;28;20378;-57
2022/02/09 08:09:36;;;;;;;8.52;3.47;;;15.70;99.90;;;;;;5051495;28;20929;-57
2022/02/09 08:20:28;;;;;;;6.97;3.10;;;15.30;99.90;;;;;;5071718;28;20457;-58
2022/02/09 08:33:16;;;;;;;10.30;7.88;;;;;;;;;;5071378;28;20372;-57
2022/02/09 08:35:42;;;;;;;10.60;3.70;;;;;;;;;;5070842;28;20372;-57
2022/02/09 08:38:08;;;;;;;8.93;3.30;;;;;;;;;;5070940;28;20411;-57
2022/02/09 08:40:35;;;;;;;16.23;14.68;;;;;;;;;;5069662;28;20368;-57
2022/02/09 08:43:01;;;;;;;9.15;6.53;;;;;;;;;;5065524;28;20413;-57
2022/02/09 08:45:28;;;;;;;9.73;3.20;;;;;;;;;;5055393;28;20846;-57
2022/02/09 08:47:56;;;;;;;8.63;2.90;;;;;;;;;;5061758;28;20387;-57
2022/02/09 08:50:22;;;;;;;8.85;3.55;;;;;;;;;;5069948;28;20391;-57
2022/02/09 08:52:48;;;;;;;8.60;4.05;;;;;;;;;;5070570;28;20367;-57
2022/02/09 08:55:15;;;;;;;8.65;3.50;;;;;;;;;;5071262;28;20367;-57
2022/02/09 08:57:41;;;;;;;8.40;3.77;;;;;;;;;;5057469;28;20416;-58
2022/02/09 09:00:18;;;;;;;8.20;3.60;;;;;;;;;;5063632;28;20390;-58
2022/02/09 09:02:48;;;;;;;9.20;3.88;;;;;;;;;;5066674;28;20460;-57
2022/02/09 09:05:21;;;;;;;6.78;2.83;;;;;;;;;;5070642;28;20358;-58
2022/02/09 09:07:53;;;;;;;8.00;2.80;;;;;;;;;;5070030;28;20371;-58
2022/02/09 09:10:29;;;;;;;7.80;3.10;;;;;;;;;;5070555;28;20379;-58
2022/02/09 10:02:05;;;;;;;7.38;2.30;;;;;;;;;;4988194;28;20374;-57
2022/02/09 10:35:27;;;;;;;7.32;2.47;;;21.00;89.70;;;;;;5067056;28;20896;-57
2022/02/09 10:37:56;;;;;;;7.40;2.55;;;21.00;84.80;;;;;;5068501;28;20411;-57
2022/02/09 10:40:37;;;;;;;7.10;2.55;;;21.30;86.40;;;;;;5068300;28;20863;-57
2022/02/09 10:43:05;;;;;;;9.50;6.32;;;22.20;86.50;;;;;;5063305;28;20389;-57
2022/02/09 10:45:43;;;;;;;7.97;4.93;;;22.80;80.80;;;;;;5071566;28;20394;-57
2022/02/09 10:48:35;;;;;;;11.52;10.50;;;23.10;81.80;;;;;;5069475;28;20414;-59
2022/02/09 10:51:23;;;;;;;13.20;12.00;;;22.50;83.30;;;;;;5073035;28;20407;-59
2022/02/09 10:54:07;;;;;;;16.65;12.85;;;21.60;79.80;;;;;;5066897;28;20427;-59
2022/02/09 10:56:34;;;;;;;13.13;11.60;;;21.80;77.90;;;;;;5048287;28;20385;-59
2022/02/09 10:59:03;;;;;;;10.88;9.60;;;22.30;78.00;;;;;;5049153;28;20413;-59
2022/02/09 11:01:29;;;;;;;12.10;10.88;;;22.70;73.40;;;;;;5048438;28;20432;-59
2022/02/09 11:03:58;;;;;;;11.20;10.00;;;22.40;74.80;;;;;;5077276;28;20426;-59
2022/02/09 11:06:32;;;;;;;13.60;10.27;;;21.80;75.20;;;;;;5093013;28;20374;-59
2022/02/09 11:08:57;;;;;;;12.03;10.20;;;22.50;73.90;;;;;;5074644;28;20409;-60
2022/02/09 11:11:23;;;;;;;11.33;10.20;;;22.30;72.90;;;;;;5091937;28;20389;-59
2022/02/09 11:13:50;;;;;;;13.38;9.25;;;22.20;71.30;;;;;;5084995;28;20376;-59
2022/02/09 11:16:17;;;;;;;11.45;8.13;;;22.80;70.50;;;;;;5055680;28;20432;-60
2022/02/09 11:18:47;;;;;;;12.07;9.60;;;23.00;70.80;;;;;;5072159;28;20424;-59
2022/02/09 11:21:14;;;;;;;13.43;11.30;;;21.60;74.90;;;;;;5072999;28;20399;-57
2022/02/09 11:23:45;;;;;;;11.90;8.10;;;20.50;75.80;;;;;;5071744;28;20569;-56
2022/02/09 11:27:03;;;;;;;10.60;7.10;;;20.30;76.30;;;;;;5072486;28;20388;-56
2022/02/09 11:30:06;;;;;;;11.65;6.20;;;20.70;75.60;;;;;;5071228;28;20881;-57
2022/02/09 11:37:55;;;;;;;11.55;4.45;;;19.30;82.50;;;;;;5072008;28;20506;-57
2022/02/09 11:47:19;;;;;;;9.70;3.60;;;18.20;83.10;;;;;;5010244;28;20400;-59
2022/02/09 11:50:06;;;;;;;8.25;3.40;;;17.10;86.10;;;;;;5056069;28;20725;-58
2022/02/09 11:52:48;;;;;;;10.00;4.00;;;16.60;89.80;;;;;;5071259;28;20785;-58
2022/02/09 12:09:46;;;;;;;10.05;3.45;;;16.40;92.40;;;;;;5071737;28;20382;-58
2022/02/09 12:12:23;;;;;;;8.20;3.22;;;16.10;92.50;;;;;;5069441;28;20392;-59
2022/02/09 12:15:04;;;;;;;8.10;3.20;;;16.00;93.80;;;;;;5070626;28;20429;-59
2022/02/09 12:18:03;;;;;;;9.07;3.55;;;15.90;93.10;;;;;;5070910;28;20478;-59
2022/02/09 12:20:26;;;;;;;8.23;3.15;;;16.10;93.10;;;;;;5071062;28;20448;-59
2022/02/09 12:25:46;;;;;;;10.43;3.30;;;16.30;92.10;;;;;;5070952;28;20388;-57
2022/02/09 12:28:20;;;;;;;7.70;3.80;;;16.40;93.20;;;;;;5071083;28;20987;-59
2022/02/09 12:30:46;;;;;;;7.70;3.00;;;16.50;93.20;;;;;;5070528;28;20386;-58
2022/02/09 12:33:24;;;;;;;12.45;3.60;;;16.70;93.20;;;;;;5071274;28;20368;-58
2022/02/09 12:35:50;;;;;;;11.98;3.80;;;16.60;92.50;;;;;;5070850;28;20466;-58
2022/02/09 12:38:30;;;;;;;8.75;2.80;;;16.30;92.30;;;;;;5071256;28;20458;-58
2022/02/09 12:41:19;;;;;;;9.50;3.90;;;16.10;94.10;;;;;;5071194;28;20459;-58
2022/02/09 12:43:56;;;;;;;11.48;3.33;;;16.30;93.70;;;;;;5070284;28;20833;-58
2022/02/09 12:46:25;;;;;;;7.50;2.90;;;16.40;92.30;;;;;;5070372;28;20457;-58
2022/02/09 12:48:52;;;;;;;9.90;3.10;;;16.50;92.40;;;;;;5070137;28;20498;-58
2022/02/09 12:51:29;;;;;;;8.68;3.20;;;16.40;94.00;;;;;;5070151;28;20398;-58
2022/02/09 12:53:56;;;;;;;9.00;3.30;;;16.20;93.60;;;;;;5070290;28;20487;-58
2022/02/09 12:56:55;;;;;;;8.00;3.25;;;16.50;94.10;;;;;;5070820;28;20419;-58
2022/02/09 12:59:22;;;;;;;9.63;3.28;;;16.50;93.90;;;;;;5064077;28;20423;-58
2022/02/09 13:01:56;;;;;;;7.10;2.90;;;16.70;92.70;;;;;;5069345;28;20375;-58
2022/02/09 13:04:34;;;;;;;7.75;2.63;;;16.60;93.20;;;;;;5068769;28;20489;-58
2022/02/09 13:07:02;;;;;;;8.98;3.33;;;16.60;93.90;;;;;;5068106;28;20392;-58
2022/02/09 13:09:28;;;;;;;7.95;2.90;;;16.50;95.00;;;;;;5069350;28;20463;-59
2022/02/09 13:11:54;;;;;;;8.77;3.20;;;16.50;94.10;;;;;;5069323;28;20506;-58
2022/02/09 13:14:35;;;;;;;9.88;3.20;;;16.60;92.80;;;;;;5069743;28;20462;-58
2022/02/09 14:23:36;;;;;;;10.40;3.10;;;16.00;91.90;;;;;;5066340;28;20466;-59
2022/02/09 14:59:20;;;;;;;8.80;2.80;;;15.60;94.80;;;;;;5037376;28;20512;-59
2022/02/09 15:01:55;;;;;;;7.60;2.17;;;15.50;94.40;;;;;;5052635;28;20460;-59
2022/02/09 15:07:21;;;;;;;8.93;2.60;;;15.40;95.80;;;;;;5052770;28;20381;-59
2022/02/09 15:09:55;;;;;;;7.68;2.28;;;15.30;96.20;;;;;;5052040;28;20397;-58
2022/02/09 15:12:43;;;;;;;7.40;1.97;;;15.20;96.50;;;;;;5056525;28;20391;-59
2022/02/09 15:23:11;;;;;;;8.85;3.00;;;14.90;97.10;;;;;;5063866;28;20406;-56
2022/02/09 15:25:37;;;;;;;6.63;2.20;;;14.90;97.60;;;;;;5069726;28;20390;-57
2022/02/09 15:28:05;;;;;;;8.20;2.30;;;14.90;97.10;;;;;;5069732;28;20388;-57
2022/02/09 15:30:37;;;;;;;7.38;2.60;;;14.90;97.30;;;;;;5071650;28;20380;-56
2022/02/09 15:33:04;;;;;;;8.20;3.20;;;15.00;96.90;;;;;;5069336;28;20391;-55
2022/02/09 15:35:34;;;;;;;7.53;2.50;;;14.90;96.80;;;;;;5071704;28;20899;-57
2022/02/09 15:38:06;;;;;;;9.90;2.78;;;14.90;96.30;;;;;;5072391;28;20407;-59
2022/02/09 15:40:34;;;;;;;9.38;3.35;;;14.90;96.90;;;;;;5071966;28;20386;-59
2022/02/09 15:56:51;;;;;;;8.23;4.80;;;14.30;97.50;;;;;;5072204;28;20374;-59
2022/02/09 15:59:34;;;;;;;12.82;5.38;;;14.20;97.40;;;;;;5071986;28;20476;-57
2022/02/09 16:23:37;;;;;;;11.13;7.30;;;13.80;97.80;;;;;;5070628;28;20384;-59
2022/02/09 16:36:25;;;;;;;9.82;4.60;;;13.60;98.50;;;;;;5070584;28;20433;-58
2022/02/09 16:45:13;;;;;;;12.75;3.83;;;12.80;99.90;;;;;;5071286;28;20712;-57
2022/02/09 16:50:09;;;;;;;11.48;3.40;;;12.30;99.90;;;;;;5071286;28;20443;-57
2022/02/09 17:19:02;;;;;;;9.73;4.05;;;11.00;99.90;;;;;;5069991;28;20415;-58
2022/02/09 17:21:30;;;;;;;10.95;4.40;;;10.90;99.90;;;;;;5052606;28;20745;-58
2022/02/09 17:23:58;;;;;;;12.87;3.97;;;10.90;99.90;;;;;;5070575;28;20819;-57
2022/02/09 17:26:25;;;;;;;9.82;3.08;;;10.70;99.90;;;;;;5070829;28;20442;-58
2022/02/09 17:29:32;;;;;;;10.60;3.50;;;10.50;99.90;;;;;;5069375;28;20391;-57
2022/02/09 17:31:56;;;;;;;9.93;3.45;;;10.40;99.90;;;;;;5065547;28;20551;-57
2022/02/09 17:37:14;;;;;;;9.60;3.60;;;10.20;99.90;;;;;;5069442;28;20471;-57
2022/02/09 17:53:25;;;;;;;8.73;4.05;;;10.00;99.90;;;;;;5074589;28;20723;-59
2022/02/09 17:56:14;;;;;;;9.23;3.85;;;9.90;99.90;;;;;;5077472;28;20450;-58
2022/02/09 17:58:46;;;;;;;9.07;3.70;;;9.90;99.90;;;;;;5059510;28;20451;-59
2022/02/09 18:01:15;;;;;;;9.27;3.30;;;10.00;99.90;;;;;;5056417;28;20405;-58
2022/02/09 18:03:41;;;;;;;7.72;3.10;;;10.00;99.90;;;;;;5054682;28;20386;-59
2022/02/09 18:06:20;;;;;;;8.13;3.30;;;9.90;99.90;;;;;;5063748;28;20416;-59
2022/02/09 18:08:54;;;;;;;7.30;3.10;;;9.80;99.90;;;;;;5061831;28;20785;-59
2022/02/09 18:25:14;;;;;;;8.38;3.45;;;9.40;99.90;;;;;;5051109;28;20889;-59
2022/02/09 18:25:33;;;;;;;8.80;3.15;;;9.00;99.90;;;;;;5055120;28;20389;-58
2022/02/09 18:30:55;;;;;;;6.78;3.30;;;8.70;99.90;;;;;;5049391;28;20385;-58
2022/02/09 18:33:50;;;;;;;10.38;3.83;;;8.60;99.90;;;;;;5062924;28;20757;-58
2022/02/09 18:40:04;;;;;;;8.17;3.63;;;8.40;99.90;;;;;;5064411;28;20458;-58
2022/02/09 18:44:58;;;;;;;10.77;4.60;;;8.20;99.90;;;;;;5056344;28;20443;-58
2022/02/09 18:56:56;;;;;;;8.70;3.90;;;8.20;99.90;;;;;;5051841;28;20467;-58
2022/02/09 19:01:58;;;;;;;12.13;5.53;;;8.30;99.90;;;;;;5057031;28;20388;-58
2022/02/09 19:03:54;;;;;;;14.13;5.90;;;8.30;99.90;;;;;;5054525;28;20391;-58
2022/02/09 19:06:28;;;;;;;11.45;5.50;;;8.30;99.90;;;;;;5058932;28;20383;-58
2022/02/09 19:30:20;;;;;;;14.13;7.68;;;7.60;99.90;;;;;;5066891;28;20388;-56
2022/02/09 19:41:26;;;;;;;12.05;6.00;;;7.40;99.90;;;;;;5056895;28;20416;-57
2022/02/09 19:47:14;;;;;;;14.60;6.40;;;7.30;99.90;;;;;;5041202;28;20379;-56
2022/02/09 19:49:35;;;;;;;10.65;5.90;;;7.40;99.90;;;;;;5055724;28;20413;-56
2022/02/09 19:52:30;;;;;;;13.80;6.40;;;7.40;99.90;;;;;;5055975;28;20867;-56
2022/02/09 19:57:24;;;;;;;11.00;6.35;;;8.10;99.90;;;;;;5055305;28;20480;-56
2022/02/09 19:59:50;;;;;;;17.65;10.30;;;7.30;99.90;;;;;;5033915;28;20389;-56
2022/02/09 20:02:18;;;;;;;16.50;9.10;;;7.30;99.90;;;;;;5057606;28;20515;-56
2022/02/09 20:04:44;;;;;;;15.15;8.70;;;7.30;99.90;;;;;;5045897;28;20412;-56
2022/02/09 20:07:10;;;;;;;12.50;7.50;;;7.40;99.90;;;;;;5062215;28;20388;-56
2022/02/09 20:09:35;;;;;;;17.33;11.20;;;7.30;99.90;;;;;;5060571;28;20401;-56
2022/02/09 20:12:02;;;;;;;15.75;7.57;;;8.10;99.90;;;;;;5067116;28;20622;-57
2022/02/09 20:14:29;;;;;;;12.45;6.47;;;7.30;99.90;;;;;;5067400;28;20448;-56
2022/02/09 20:16:54;;;;;;;12.00;6.05;;;7.20;99.90;;;;;;5065415;28;20430;-56
2022/02/09 20:19:20;;;;;;;12.93;6.65;;;7.20;99.90;;;;;;5067638;28;20492;-56
2022/02/09 20:21:46;;;;;;;13.07;6.60;;;7.10;99.90;;;;;;5048771;28;20392;-56
2022/02/09 20:24:15;;;;;;;14.52;6.90;;;7.10;99.90;;;;;;5067741;28;20400;-58
2022/02/09 20:26:42;;;;;;;15.80;8.75;;;7.00;99.90;;;;;;5066628;28;20477;-57
2022/02/09 20:29:22;;;;;;;12.80;6.70;;;8.40;99.90;;;;;;5067923;28;20831;-57
2022/02/09 20:32:09;;;;;;;11.40;6.70;;;7.00;99.90;;;;;;5068077;28;20393;-57
2022/02/09 20:34:43;;;;;;;12.35;5.78;;;7.00;99.90;;;;;;5059285;28;20487;-58
2022/02/09 20:37:10;;;;;;;14.63;6.20;;;7.00;99.90;;;;;;5066949;28;20861;-57
2022/02/09 20:39:42;;;;;;;12.02;5.95;;;7.00;99.90;;;;;;5066715;28;20411;-56
2022/02/09 20:42:15;;;;;;;12.65;6.40;;;6.90;99.90;;;;;;5068239;28;20387;-56
2022/02/09 20:44:49;;;;;;;11.70;5.90;;;6.90;99.90;;;;;;5066709;28;20404;-57
2022/02/09 20:47:15;;;;;;;11.30;6.43;;;6.90;99.90;;;;;;5068491;28;20525;-57
2022/02/09 20:49:41;;;;;;;11.05;6.18;;;7.00;99.90;;;;;;5067610;28;20404;-57
2022/02/09 20:52:07;;;;;;;11.52;5.90;;;7.00;99.90;;;;;;5059294;28;20390;-57
2022/02/09 20:54:33;;;;;;;9.63;5.60;;;7.00;99.90;;;;;;5065620;28;20380;-57
2022/02/09 20:56:58;;;;;;;11.35;6.72;;;6.90;99.90;;;;;;5065376;28;20538;-57
2022/02/09 20:59:26;;;;;;;12.00;6.80;;;6.90;99.90;;;;;;5068834;28;20494;-56
2022/02/09 21:02:02;;;;;;;12.32;6.40;;;6.80;99.90;;;;;;5062637;28;20391;-57
2022/02/09 21:04:30;;;;;;;11.40;6.30;;;6.70;99.90;;;;;;5061875;28;20429;-57
2022/02/09 21:12:16;;;;;;;17.95;9.57;;;6.60;99.90;;;;;;5066080;28;20399;-56
2022/02/09 21:23:48;;;;;;;14.48;7.72;;;7.50;99.90;;;;;;5065632;28;20398;-56
2022/02/09 22:16:42;;;;;;;11.30;5.20;;;6.20;99.90;;;;;;5067486;28;20454;-56
2022/02/09 22:30:23;;;;;;;10.27;5.60;;;6.00;99.90;;;;;;5061962;28;20380;-56
2022/02/09 22:54:25;;;;;;;10.10;5.28;;;6.90;99.90;;;;;;5059893;28;20540;-56
2022/02/09 22:56:28;;;;;;;11.25;5.60;;;5.90;99.90;;;;;;5065847;28;20410;-56
2022/02/09 22:58:53;;;;;;;10.90;5.65;;;5.90;99.90;;;;;;5064263;28;20452;-56
2022/02/09 23:01:34;;;;;;;11.98;5.70;;;6.10;99.90;;;;;;5069069;28;20492;-56
2022/02/09 23:06:49;;;;;;;10.65;5.30;;;5.80;99.90;;;;;;5072715;28;20397;-56
2022/02/09 23:12:10;;;;;;;9.98;5.75;;;5.80;99.90;;;;;;5072288;28;20399;-56
2022/02/09 23:55:23;;;;;;;14.02;6.60;;;5.20;99.90;;;;;;5070255;28;20480;-56
2022/02/09 23:58:07;;;;;;;10.80;6.20;;;5.40;99.90;;;;;;5071131;28;20393;-56
